sensor_id;sensor_type;location;lat;lon;timestamp;temperature;humidity
26595;DHT22;14238;49.496;8.154;2023-04-06T00:01:30;0.80;99.90
26595;DHT22;14238;49.496;8.154;2023-04-06T00:03:55;0.80;99.90
26595;DHT22;14238;49.496;8.154;2023-04-06T00:06:21;0.80;99.90
26595;DHT22;14238;49.496;8.154;2023-04-06T00:08:47;0.80;99.90
26595;DHT22;14238;49.496;8.154;2023-04-06T00:11:12;0.80;99.90
26595;DHT22;14238;49.496;8.154;2023-04-06T00:13:39;0.80;99.90
26595;DHT22;14238;49.496;8.154;2023-04-06T00:16:05;0.80;99.90
26595;DHT22;14238;49.496;8.154;2023-04-06T00:18:31;0.70;99.90
26595;DHT22;14238;49.496;8.154;2023-04-06T00:20:57;0.80;99.90
26595;DHT22;14238;49.496;8.154;2023-04-06T00:23:22;0.70;99.90
26595;DHT22;14238;49.496;8.154;2023-04-06T00:25:48;0.70;99.90
26595;DHT22;14238;49.496;8.154;2023-04-06T00:28:13;0.70;99.90
26595;DHT22;14238;49.496;8.154;2023-04-06T00:30:40;0.80;99.90
26595;DHT22;14238;49.496;8.154;2023-04-06T00:33:06;0.70;99.90
26595;DHT22;14238;49.496;8.154;2023-04-06T00:35:31;0.60;99.90
26595;DHT22;14238;49.496;8.154;2023-04-06T00:37:57;0.60;99.90
26595;DHT22;14238;49.496;8.154;2023-04-06T00:40:23;0.60;99.90
26595;DHT22;14238;49.496;8.154;2023-04-06T00:42:48;0.50;99.90
26595;DHT22;14238;49.496;8.154;2023-04-06T00:45:14;0.40;99.90
26595;DHT22;14238;49.496;8.154;2023-04-06T00:47:40;0.50;99.90
26595;DHT22;14238;49.496;8.154;2023-04-06T00:50:06;0.40;99.90
26595;DHT22;14238;49.496;8.154;2023-04-06T00:52:31;0.50;99.90
26595;DHT22;14238;49.496;8.154;2023-04-06T00:54:58;0.50;99.90
26595;DHT22;14238;49.496;8.154;2023-04-06T00:57:24;0.50;99.90
26595;DHT22;14238;49.496;8.154;2023-04-06T00:59:49;0.40;99.90
26595;DHT22;14238;49.496;8.154;2023-04-06T01:02:15;0.40;99.90
26595;DHT22;14238;49.496;8.154;2023-04-06T01:04:40;0.30;99.90
26595;DHT22;14238;49.496;8.154;2023-04-06T01:07:06;0.30;99.90
26595;DHT22;14238;49.496;8.154;2023-04-06T01:09:31;0.40;99.90
26595;DHT22;14238;49.496;8.154;2023-04-06T01:11:57;0.50;99.90
26595;DHT22;14238;49.496;8.154;2023-04-06T01:14:23;0.50;99.90
26595;DHT22;14238;49.496;8.154;2023-04-06T01:16:50;0.30;99.90
26595;DHT22;14238;49.496;8.154;2023-04-06T01:19:16;0.40;99.90
26595;DHT22;14238;49.496;8.154;2023-04-06T01:21:42;0.40;99.90
26595;DHT22;14238;49.496;8.154;2023-04-06T01:24:08;0.40;99.90
26595;DHT22;14238;49.496;8.154;2023-04-06T01:26:35;0.40;99.90
26595;DHT22;14238;49.496;8.154;2023-04-06T01:29:02;0.40;99.90
26595;DHT22;14238;49.496;8.154;2023-04-06T01:31:28;0.40;99.90
26595;DHT22;14238;49.496;8.154;2023-04-06T01:33:54;0.30;99.90
26595;DHT22;14238;49.496;8.154;2023-04-06T01:36:20;0.10;99.90
26595;DHT22;14238;49.496;8.154;2023-04-06T01:38:45;0.10;99.90
26595;DHT22;14238;49.496;8.154;2023-04-06T01:41:11;0.10;99.90
26595;DHT22;14238;49.496;8.154;2023-04-06T01:43:37;0.00;99.90
26595;DHT22;14238;49.496;8.154;2023-04-06T01:46:02;0.00;99.90
26595;DHT22;14238;49.496;8.154;2023-04-06T01:48:28;0.00;99.90
26595;DHT22;14238;49.496;8.154;2023-04-06T01:50:54;0.10;99.90
26595;DHT22;14238;49.496;8.154;2023-04-06T01:53:19;0.00;99.90
26595;DHT22;14238;49.496;8.154;2023-04-06T01:55:45;0.00;99.90
26595;DHT22;14238;49.496;8.154;2023-04-06T01:58:11;0.00;99.90
26595;DHT22;14238;49.496;8.154;2023-04-06T02:00:37;0.00;99.90
26595;DHT22;14238;49.496;8.154;2023-04-06T02:03:02;0.00;99.90
26595;DHT22;14238;49.496;8.154;2023-04-06T02:05:30;0.00;99.90
26595;DHT22;14238;49.496;8.154;2023-04-06T02:07:56;0.00;99.90
26595;DHT22;14238;49.496;8.154;2023-04-06T02:10:22;0.00;99.90
26595;DHT22;14238;49.496;8.154;2023-04-06T02:12:48;0.00;99.90
26595;DHT22;14238;49.496;8.154;2023-04-06T02:15:13;0.00;99.90
26595;DHT22;14238;49.496;8.154;2023-04-06T02:17:40;0.00;99.90
26595;DHT22;14238;49.496;8.154;2023-04-06T02:20:06;-0.10;99.90
26595;DHT22;14238;49.496;8.154;2023-04-06T02:22:32;-0.20;99.90
26595;DHT22;14238;49.496;8.154;2023-04-06T02:24:57;-0.20;99.90
26595;DHT22;14238;49.496;8.154;2023-04-06T02:27:23;-0.20;99.90
26595;DHT22;14238;49.496;8.154;2023-04-06T02:29:48;-0.20;99.90
26595;DHT22;14238;49.496;8.154;2023-04-06T02:32:14;-0.20;99.90
26595;DHT22;14238;49.496;8.154;2023-04-06T02:34:39;-0.20;99.90
26595;DHT22;14238;49.496;8.154;2023-04-06T02:37:05;-0.20;99.90
26595;DHT22;14238;49.496;8.154;2023-04-06T02:39:30;-0.20;99.90
26595;DHT22;14238;49.496;8.154;2023-04-06T02:41:56;-0.30;99.90
26595;DHT22;14238;49.496;8.154;2023-04-06T02:44:22;-0.40;99.90
26595;DHT22;14238;49.496;8.154;2023-04-06T02:46:48;-0.20;99.90
26595;DHT22;14238;49.496;8.154;2023-04-06T02:49:13;-0.10;99.90
26595;DHT22;14238;49.496;8.154;2023-04-06T02:51:39;-0.20;99.90
26595;DHT22;14238;49.496;8.154;2023-04-06T02:54:04;-0.10;99.90
26595;DHT22;14238;49.496;8.154;2023-04-06T02:56:30;-0.10;99.90
26595;DHT22;14238;49.496;8.154;2023-04-06T02:58:55;-0.30;99.90
26595;DHT22;14238;49.496;8.154;2023-04-06T03:01:21;-0.40;99.90
26595;DHT22;14238;49.496;8.154;2023-04-06T03:03:46;-0.40;99.90
26595;DHT22;14238;49.496;8.154;2023-04-06T03:06:12;-0.40;99.90
26595;DHT22;14238;49.496;8.154;2023-04-06T03:08:37;-0.40;99.90
26595;DHT22;14238;49.496;8.154;2023-04-06T03:11:03;-0.30;99.90
26595;DHT22;14238;49.496;8.154;2023-04-06T03:13:28;-0.30;99.90
26595;DHT22;14238;49.496;8.154;2023-04-06T03:15:54;-0.30;99.90
26595;DHT22;14238;49.496;8.154;2023-04-06T03:18:24;-0.30;99.90
26595;DHT22;14238;49.496;8.154;2023-04-06T03:20:50;-0.30;99.90
26595;DHT22;14238;49.496;8.154;2023-04-06T03:23:16;-0.30;99.90
26595;DHT22;14238;49.496;8.154;2023-04-06T03:25:41;-0.30;99.90
26595;DHT22;14238;49.496;8.154;2023-04-06T03:28:07;-0.40;99.90
26595;DHT22;14238;49.496;8.154;2023-04-06T03:30:34;-0.40;99.90
26595;DHT22;14238;49.496;8.154;2023-04-06T03:32:59;-0.40;99.90
26595;DHT22;14238;49.496;8.154;2023-04-06T03:35:25;-0.30;99.90
26595;DHT22;14238;49.496;8.154;2023-04-06T03:37:51;-0.50;99.90
26595;DHT22;14238;49.496;8.154;2023-04-06T03:40:17;-0.50;99.90
26595;DHT22;14238;49.496;8.154;2023-04-06T03:42:43;-0.50;99.90
26595;DHT22;14238;49.496;8.154;2023-04-06T03:45:09;-0.50;99.90
26595;DHT22;14238;49.496;8.154;2023-04-06T03:47:35;-0.50;99.90
26595;DHT22;14238;49.496;8.154;2023-04-06T03:50:00;-0.50;99.90
26595;DHT22;14238;49.496;8.154;2023-04-06T03:52:26;-0.40;99.90
26595;DHT22;14238;49.496;8.154;2023-04-06T03:54:52;-0.50;99.90
26595;DHT22;14238;49.496;8.154;2023-04-06T03:57:17;-0.50;99.90
26595;DHT22;14238;49.496;8.154;2023-04-06T03:59:43;-0.50;99.90
26595;DHT22;14238;49.496;8.154;2023-04-06T04:02:08;-0.50;99.90
26595;DHT22;14238;49.496;8.154;2023-04-06T04:04:34;-0.40;99.90
26595;DHT22;14238;49.496;8.154;2023-04-06T04:06:59;-0.50;99.90
26595;DHT22;14238;49.496;8.154;2023-04-06T04:09:25;-0.60;99.90
26595;DHT22;14238;49.496;8.154;2023-04-06T04:11:51;-0.70;99.90
26595;DHT22;14238;49.496;8.154;2023-04-06T04:14:16;-0.70;99.90
26595;DHT22;14238;49.496;8.154;2023-04-06T04:16:42;-0.60;99.90
26595;DHT22;14238;49.496;8.154;2023-04-06T04:19:07;-0.60;99.90
26595;DHT22;14238;49.496;8.154;2023-04-06T04:21:33;-0.60;99.90
26595;DHT22;14238;49.496;8.154;2023-04-06T04:23:59;-0.50;99.90
26595;DHT22;14238;49.496;8.154;2023-04-06T04:26:24;-0.50;99.90
26595;DHT22;14238;49.496;8.154;2023-04-06T04:28:50;-0.60;99.90
26595;DHT22;14238;49.496;8.154;2023-04-06T04:31:15;-0.70;99.90
26595;DHT22;14238;49.496;8.154;2023-04-06T04:33:43;-0.70;99.90
26595;DHT22;14238;49.496;8.154;2023-04-06T04:36:09;-0.60;99.90
26595;DHT22;14238;49.496;8.154;2023-04-06T04:38:35;-0.70;99.90
26595;DHT22;14238;49.496;8.154;2023-04-06T04:41:01;-0.70;99.90
26595;DHT22;14238;49.496;8.154;2023-04-06T04:43:26;-0.80;99.90
26595;DHT22;14238;49.496;8.154;2023-04-06T04:45:52;-0.90;99.90
26595;DHT22;14238;49.496;8.154;2023-04-06T04:48:17;-0.70;99.90
26595;DHT22;14238;49.496;8.154;2023-04-06T04:50:43;-0.70;99.90
26595;DHT22;14238;49.496;8.154;2023-04-06T04:53:08;-0.80;99.90
26595;DHT22;14238;49.496;8.154;2023-04-06T04:55:34;-0.80;99.90
26595;DHT22;14238;49.496;8.154;2023-04-06T04:57:59;-0.90;99.90
26595;DHT22;14238;49.496;8.154;2023-04-06T05:00:25;-0.80;99.90
26595;DHT22;14238;49.496;8.154;2023-04-06T05:02:51;-0.80;99.90
26595;DHT22;14238;49.496;8.154;2023-04-06T05:05:16;-0.80;99.90
26595;DHT22;14238;49.496;8.154;2023-04-06T05:07:42;-0.80;99.90
26595;DHT22;14238;49.496;8.154;2023-04-06T05:10:08;-0.80;99.90
26595;DHT22;14238;49.496;8.154;2023-04-06T05:12:39;-0.70;99.90
26595;DHT22;14238;49.496;8.154;2023-04-06T05:15:06;-0.70;99.90
26595;DHT22;14238;49.496;8.154;2023-04-06T05:17:31;-0.70;99.90
26595;DHT22;14238;49.496;8.154;2023-04-06T05:19:57;-0.70;99.90
26595;DHT22;14238;49.496;8.154;2023-04-06T05:22:22;-0.70;99.90
26595;DHT22;14238;49.496;8.154;2023-04-06T05:24:48;-0.70;99.90
26595;DHT22;14238;49.496;8.154;2023-04-06T05:27:13;-0.70;99.90
26595;DHT22;14238;49.496;8.154;2023-04-06T05:29:39;-0.60;99.90
26595;DHT22;14238;49.496;8.154;2023-04-06T05:32:05;-0.60;99.90
26595;DHT22;14238;49.496;8.154;2023-04-06T05:34:31;-0.60;99.90
26595;DHT22;14238;49.496;8.154;2023-04-06T05:36:57;-0.50;99.90
26595;DHT22;14238;49.496;8.154;2023-04-06T05:39:22;-0.50;99.90
26595;DHT22;14238;49.496;8.154;2023-04-06T05:41:48;-0.50;99.90
26595;DHT22;14238;49.496;8.154;2023-04-06T05:44:14;-0.50;99.90
26595;DHT22;14238;49.496;8.154;2023-04-06T05:46:39;-0.50;99.90
26595;DHT22;14238;49.496;8.154;2023-04-06T05:49:05;-0.50;99.90
26595;DHT22;14238;49.496;8.154;2023-04-06T05:51:31;-0.40;99.90
26595;DHT22;14238;49.496;8.154;2023-04-06T05:53:56;-0.20;99.90
26595;DHT22;14238;49.496;8.154;2023-04-06T05:56:23;-0.20;99.90
26595;DHT22;14238;49.496;8.154;2023-04-06T05:58:49;-0.10;99.90
26595;DHT22;14238;49.496;8.154;2023-04-06T06:01:14;-0.20;99.90
26595;DHT22;14238;49.496;8.154;2023-04-06T06:03:40;0.00;99.90
26595;DHT22;14238;49.496;8.154;2023-04-06T06:06:06;0.00;99.90
26595;DHT22;14238;49.496;8.154;2023-04-06T06:08:32;0.00;99.90
26595;DHT22;14238;49.496;8.154;2023-04-06T06:10:57;0.10;99.90
26595;DHT22;14238;49.496;8.154;2023-04-06T06:13:23;0.30;99.90
26595;DHT22;14238;49.496;8.154;2023-04-06T06:15:49;0.30;99.90
26595;DHT22;14238;49.496;8.154;2023-04-06T06:18:15;0.40;99.90
26595;DHT22;14238;49.496;8.154;2023-04-06T06:20:41;0.40;99.90
26595;DHT22;14238;49.496;8.154;2023-04-06T06:23:06;0.50;99.90
26595;DHT22;14238;49.496;8.154;2023-04-06T06:25:32;0.60;99.90
26595;DHT22;14238;49.496;8.154;2023-04-06T06:27:58;0.60;99.90
26595;DHT22;14238;49.496;8.154;2023-04-06T06:30:25;0.70;99.90
26595;DHT22;14238;49.496;8.154;2023-04-06T06:32:51;0.80;99.90
26595;DHT22;14238;49.496;8.154;2023-04-06T06:35:17;0.90;99.90
26595;DHT22;14238;49.496;8.154;2023-04-06T06:37:42;0.90;99.90
26595;DHT22;14238;49.496;8.154;2023-04-06T06:40:11;1.00;99.90
26595;DHT22;14238;49.496;8.154;2023-04-06T06:42:38;1.10;99.90
26595;DHT22;14238;49.496;8.154;2023-04-06T06:45:05;1.20;99.90
26595;DHT22;14238;49.496;8.154;2023-04-06T06:47:30;1.20;99.90
26595;DHT22;14238;49.496;8.154;2023-04-06T06:49:56;1.30;99.90
26595;DHT22;14238;49.496;8.154;2023-04-06T06:52:21;1.40;99.90
26595;DHT22;14238;49.496;8.154;2023-04-06T06:54:49;1.50;99.90
26595;DHT22;14238;49.496;8.154;2023-04-06T06:57:15;1.50;99.90
26595;DHT22;14238;49.496;8.154;2023-04-06T06:59:40;1.60;99.90
26595;DHT22;14238;49.496;8.154;2023-04-06T07:02:06;1.60;99.90
26595;DHT22;14238;49.496;8.154;2023-04-06T07:04:31;1.70;99.90
26595;DHT22;14238;49.496;8.154;2023-04-06T07:06:57;1.80;99.90
26595;DHT22;14238;49.496;8.154;2023-04-06T07:09:23;1.80;99.90
26595;DHT22;14238;49.496;8.154;2023-04-06T07:11:48;1.90;99.90
26595;DHT22;14238;49.496;8.154;2023-04-06T07:14:15;2.00;99.90
26595;DHT22;14238;49.496;8.154;2023-04-06T07:16:41;2.10;99.90
26595;DHT22;14238;49.496;8.154;2023-04-06T07:19:06;2.10;99.90
26595;DHT22;14238;49.496;8.154;2023-04-06T07:21:32;2.10;99.90
26595;DHT22;14238;49.496;8.154;2023-04-06T07:23:57;2.10;99.90
26595;DHT22;14238;49.496;8.154;2023-04-06T07:26:23;2.20;99.90
26595;DHT22;14238;49.496;8.154;2023-04-06T07:28:49;2.30;99.90
26595;DHT22;14238;49.496;8.154;2023-04-06T07:31:14;2.40;99.90
26595;DHT22;14238;49.496;8.154;2023-04-06T07:33:40;2.50;99.90
26595;DHT22;14238;49.496;8.154;2023-04-06T07:36:06;2.80;99.90
26595;DHT22;14238;49.496;8.154;2023-04-06T07:38:31;2.80;99.90
26595;DHT22;14238;49.496;8.154;2023-04-06T07:40:57;2.90;99.90
26595;DHT22;14238;49.496;8.154;2023-04-06T07:43:22;2.90;99.90
26595;DHT22;14238;49.496;8.154;2023-04-06T07:48:14;3.10;99.90
26595;DHT22;14238;49.496;8.154;2023-04-06T07:50:39;3.00;99.90
26595;DHT22;14238;49.496;8.154;2023-04-06T07:53:05;3.20;99.90
26595;DHT22;14238;49.496;8.154;2023-04-06T07:55:30;3.20;99.90
26595;DHT22;14238;49.496;8.154;2023-04-06T07:57:56;3.20;99.90
26595;DHT22;14238;49.496;8.154;2023-04-06T08:00:21;3.40;99.90
26595;DHT22;14238;49.496;8.154;2023-04-06T08:02:47;3.50;99.90
26595;DHT22;14238;49.496;8.154;2023-04-06T08:05:13;3.70;99.90
26595;DHT22;14238;49.496;8.154;2023-04-06T08:07:38;3.80;99.90
26595;DHT22;14238;49.496;8.154;2023-04-06T08:10:04;3.80;99.90
26595;DHT22;14238;49.496;8.154;2023-04-06T08:12:30;4.00;99.90
26595;DHT22;14238;49.496;8.154;2023-04-06T08:14:55;4.20;99.90
26595;DHT22;14238;49.496;8.154;2023-04-06T08:17:22;4.30;99.90
26595;DHT22;14238;49.496;8.154;2023-04-06T08:19:48;4.50;99.90
26595;DHT22;14238;49.496;8.154;2023-04-06T08:22:13;4.70;99.90
26595;DHT22;14238;49.496;8.154;2023-04-06T08:24:39;4.90;99.90
26595;DHT22;14238;49.496;8.154;2023-04-06T08:27:04;5.00;99.90
26595;DHT22;14238;49.496;8.154;2023-04-06T08:29:30;5.10;99.90
26595;DHT22;14238;49.496;8.154;2023-04-06T08:31:56;5.10;99.90
26595;DHT22;14238;49.496;8.154;2023-04-06T08:34:21;5.40;99.90
26595;DHT22;14238;49.496;8.154;2023-04-06T08:36:48;5.60;99.90
26595;DHT22;14238;49.496;8.154;2023-04-06T08:39:13;5.70;99.90
26595;DHT22;14238;49.496;8.154;2023-04-06T08:41:41;5.70;99.90
26595;DHT22;14238;49.496;8.154;2023-04-06T08:44:08;5.90;99.90
26595;DHT22;14238;49.496;8.154;2023-04-06T08:46:34;6.40;99.90
26595;DHT22;14238;49.496;8.154;2023-04-06T08:49:01;7.20;99.90
26595;DHT22;14238;49.496;8.154;2023-04-06T08:51:28;7.80;99.90
26595;DHT22;14238;49.496;8.154;2023-04-06T08:53:55;8.20;99.90
26595;DHT22;14238;49.496;8.154;2023-04-06T08:56:25;8.60;99.90
26595;DHT22;14238;49.496;8.154;2023-04-06T08:58:52;9.30;99.90
26595;DHT22;14238;49.496;8.154;2023-04-06T09:01:23;9.60;99.90
26595;DHT22;14238;49.496;8.154;2023-04-06T09:03:51;10.30;99.90
26595;DHT22;14238;49.496;8.154;2023-04-06T09:06:20;10.40;99.90
26595;DHT22;14238;49.496;8.154;2023-04-06T09:08:46;11.00;99.50
26595;DHT22;14238;49.496;8.154;2023-04-06T09:11:12;11.00;98.70
26595;DHT22;14238;49.496;8.154;2023-04-06T09:13:50;10.50;99.80
26595;DHT22;14238;49.496;8.154;2023-04-06T09:16:16;11.00;99.90
26595;DHT22;14238;49.496;8.154;2023-04-06T09:18:42;11.50;99.10
26595;DHT22;14238;49.496;8.154;2023-04-06T09:21:08;11.40;98.40
26595;DHT22;14238;49.496;8.154;2023-04-06T09:23:35;11.70;98.30
26595;DHT22;14238;49.496;8.154;2023-04-06T09:26:11;11.80;98.80
26595;DHT22;14238;49.496;8.154;2023-04-06T09:28:47;12.20;98.10
26595;DHT22;14238;49.496;8.154;2023-04-06T09:31:14;12.70;97.90
26595;DHT22;14238;49.496;8.154;2023-04-06T09:33:42;12.80;97.50
26595;DHT22;14238;49.496;8.154;2023-04-06T09:36:08;13.10;97.10
26595;DHT22;14238;49.496;8.154;2023-04-06T09:38:38;13.10;97.10
26595;DHT22;14238;49.496;8.154;2023-04-06T09:41:04;13.30;96.70
26595;DHT22;14238;49.496;8.154;2023-04-06T09:43:30;13.50;96.80
26595;DHT22;14238;49.496;8.154;2023-04-06T09:45:56;13.90;96.40
26595;DHT22;14238;49.496;8.154;2023-04-06T09:48:22;14.10;95.50
26595;DHT22;14238;49.496;8.154;2023-04-06T09:50:53;14.20;95.00
26595;DHT22;14238;49.496;8.154;2023-04-06T09:53:21;14.50;94.80
26595;DHT22;14238;49.496;8.154;2023-04-06T09:55:55;14.40;93.10
26595;DHT22;14238;49.496;8.154;2023-04-06T09:58:23;14.40;93.10
26595;DHT22;14238;49.496;8.154;2023-04-06T10:01:30;14.80;93.00
26595;DHT22;14238;49.496;8.154;2023-04-06T10:04:07;15.20;93.60
26595;DHT22;14238;49.496;8.154;2023-04-06T10:06:35;15.30;92.20
26595;DHT22;14238;49.496;8.154;2023-04-06T10:09:04;15.20;90.60
26595;DHT22;14238;49.496;8.154;2023-04-06T10:11:30;15.50;90.90
26595;DHT22;14238;49.496;8.154;2023-04-06T10:13:56;15.80;91.60
26595;DHT22;14238;49.496;8.154;2023-04-06T10:16:22;15.80;91.00
26595;DHT22;14238;49.496;8.154;2023-04-06T10:18:54;15.60;90.50
26595;DHT22;14238;49.496;8.154;2023-04-06T10:21:23;15.10;90.50
26595;DHT22;14238;49.496;8.154;2023-04-06T10:23:55;15.10;90.60
26595;DHT22;14238;49.496;8.154;2023-04-06T10:26:23;15.30;90.60
26595;DHT22;14238;49.496;8.154;2023-04-06T10:28:49;15.50;90.80
26595;DHT22;14238;49.496;8.154;2023-04-06T10:31:27;15.60;89.70
26595;DHT22;14238;49.496;8.154;2023-04-06T10:33:57;14.90;89.60
26595;DHT22;14238;49.496;8.154;2023-04-06T10:36:25;14.60;89.10
26595;DHT22;14238;49.496;8.154;2023-04-06T10:38:57;14.20;89.60
26595;DHT22;14238;49.496;8.154;2023-04-06T10:41:31;14.10;90.20
26595;DHT22;14238;49.496;8.154;2023-04-06T10:43:57;14.30;90.00
26595;DHT22;14238;49.496;8.154;2023-04-06T10:46:27;14.50;90.30
26595;DHT22;14238;49.496;8.154;2023-04-06T10:48:53;14.90;90.00
26595;DHT22;14238;49.496;8.154;2023-04-06T10:51:25;15.30;88.80
26595;DHT22;14238;49.496;8.154;2023-04-06T10:53:53;14.90;87.90
26595;DHT22;14238;49.496;8.154;2023-04-06T10:56:22;15.00;88.70
26595;DHT22;14238;49.496;8.154;2023-04-06T10:58:49;14.70;84.20
26595;DHT22;14238;49.496;8.154;2023-04-06T11:01:19;14.80;87.10
26595;DHT22;14238;49.496;8.154;2023-04-06T11:03:46;15.00;86.60
26595;DHT22;14238;49.496;8.154;2023-04-06T11:06:23;14.90;86.50
26595;DHT22;14238;49.496;8.154;2023-04-06T11:08:50;15.20;84.90
26595;DHT22;14238;49.496;8.154;2023-04-06T11:11:18;15.40;83.30
26595;DHT22;14238;49.496;8.154;2023-04-06T11:13:52;15.00;83.80
26595;DHT22;14238;49.496;8.154;2023-04-06T11:16:22;15.10;83.50
26595;DHT22;14238;49.496;8.154;2023-04-06T11:18:59;15.60;83.40
26595;DHT22;14238;49.496;8.154;2023-04-06T11:21:42;15.80;83.10
26595;DHT22;14238;49.496;8.154;2023-04-06T11:24:20;15.60;81.00
26595;DHT22;14238;49.496;8.154;2023-04-06T11:26:52;14.90;82.10
26595;DHT22;14238;49.496;8.154;2023-04-06T11:29:38;14.90;82.60
26595;DHT22;14238;49.496;8.154;2023-04-06T11:32:04;14.60;81.20
26595;DHT22;14238;49.496;8.154;2023-04-06T11:34:34;14.60;80.50
26595;DHT22;14238;49.496;8.154;2023-04-06T11:37:08;14.80;81.20
26595;DHT22;14238;49.496;8.154;2023-04-06T11:39:48;15.10;81.40
26595;DHT22;14238;49.496;8.154;2023-04-06T11:42:21;15.40;80.80
26595;DHT22;14238;49.496;8.154;2023-04-06T11:44:50;15.00;80.50
26595;DHT22;14238;49.496;8.154;2023-04-06T11:47:16;14.10;77.80
26595;DHT22;14238;49.496;8.154;2023-04-06T11:49:43;14.00;80.10
26595;DHT22;14238;49.496;8.154;2023-04-06T11:52:27;14.00;79.40
26595;DHT22;14238;49.496;8.154;2023-04-06T11:54:53;14.00;79.60
26595;DHT22;14238;49.496;8.154;2023-04-06T11:57:22;13.50;79.20
26595;DHT22;14238;49.496;8.154;2023-04-06T11:59:51;13.30;79.20
26595;DHT22;14238;49.496;8.154;2023-04-06T12:02:17;13.10;79.50
26595;DHT22;14238;49.496;8.154;2023-04-06T12:04:43;12.90;80.40
26595;DHT22;14238;49.496;8.154;2023-04-06T12:07:09;13.00;78.40
26595;DHT22;14238;49.496;8.154;2023-04-06T12:09:35;13.20;79.30
26595;DHT22;14238;49.496;8.154;2023-04-06T12:12:02;13.70;80.40
26595;DHT22;14238;49.496;8.154;2023-04-06T12:14:28;14.10;79.80
26595;DHT22;14238;49.496;8.154;2023-04-06T12:16:56;14.10;77.20
26595;DHT22;14238;49.496;8.154;2023-04-06T12:19:21;14.30;78.40
26595;DHT22;14238;49.496;8.154;2023-04-06T12:21:51;14.50;79.40
26595;DHT22;14238;49.496;8.154;2023-04-06T12:24:16;14.70;77.20
26595;DHT22;14238;49.496;8.154;2023-04-06T12:26:42;14.70;78.10
26595;DHT22;14238;49.496;8.154;2023-04-06T12:29:08;14.80;78.60
26595;DHT22;14238;49.496;8.154;2023-04-06T12:31:37;15.10;78.50
26595;DHT22;14238;49.496;8.154;2023-04-06T12:34:10;15.10;77.70
26595;DHT22;14238;49.496;8.154;2023-04-06T12:36:36;14.90;77.90
26595;DHT22;14238;49.496;8.154;2023-04-06T12:39:02;14.70;75.70
26595;DHT22;14238;49.496;8.154;2023-04-06T12:41:28;14.60;75.00
26595;DHT22;14238;49.496;8.154;2023-04-06T12:43:55;14.10;75.60
26595;DHT22;14238;49.496;8.154;2023-04-06T12:46:20;14.00;75.50
26595;DHT22;14238;49.496;8.154;2023-04-06T12:48:46;13.90;74.50
26595;DHT22;14238;49.496;8.154;2023-04-06T12:51:12;13.80;74.00
26595;DHT22;14238;49.496;8.154;2023-04-06T12:53:37;13.80;76.40
26595;DHT22;14238;49.496;8.154;2023-04-06T12:56:11;13.90;76.30
26595;DHT22;14238;49.496;8.154;2023-04-06T12:58:37;13.60;76.50
26595;DHT22;14238;49.496;8.154;2023-04-06T13:01:06;13.60;75.80
26595;DHT22;14238;49.496;8.154;2023-04-06T13:03:32;13.60;76.00
26595;DHT22;14238;49.496;8.154;2023-04-06T13:06:00;13.70;74.70
26595;DHT22;14238;49.496;8.154;2023-04-06T13:08:25;13.80;76.20
26595;DHT22;14238;49.496;8.154;2023-04-06T13:10:52;13.60;75.60
26595;DHT22;14238;49.496;8.154;2023-04-06T13:13:22;13.80;76.50
26595;DHT22;14238;49.496;8.154;2023-04-06T13:15:48;14.00;76.80
26595;DHT22;14238;49.496;8.154;2023-04-06T13:18:14;14.20;76.20
26595;DHT22;14238;49.496;8.154;2023-04-06T13:20:39;14.20;76.50
26595;DHT22;14238;49.496;8.154;2023-04-06T13:23:05;14.10;75.90
26595;DHT22;14238;49.496;8.154;2023-04-06T13:25:31;14.10;77.50
26595;DHT22;14238;49.496;8.154;2023-04-06T13:27:58;14.00;75.60
26595;DHT22;14238;49.496;8.154;2023-04-06T13:30:23;14.00;77.80
26595;DHT22;14238;49.496;8.154;2023-04-06T13:32:49;13.90;77.40
26595;DHT22;14238;49.496;8.154;2023-04-06T13:35:15;13.80;75.50
26595;DHT22;14238;49.496;8.154;2023-04-06T13:37:41;13.80;75.50
26595;DHT22;14238;49.496;8.154;2023-04-06T13:40:08;13.70;74.80
26595;DHT22;14238;49.496;8.154;2023-04-06T13:42:33;13.60;74.00
26595;DHT22;14238;49.496;8.154;2023-04-06T13:45:00;13.70;76.00
26595;DHT22;14238;49.496;8.154;2023-04-06T13:47:26;13.70;72.60
26595;DHT22;14238;49.496;8.154;2023-04-06T13:49:52;13.80;73.90
26595;DHT22;14238;49.496;8.154;2023-04-06T13:52:19;13.60;74.40
26595;DHT22;14238;49.496;8.154;2023-04-06T13:54:45;13.90;74.80
26595;DHT22;14238;49.496;8.154;2023-04-06T13:57:10;14.20;77.60
26595;DHT22;14238;49.496;8.154;2023-04-06T13:59:38;14.20;74.70
26595;DHT22;14238;49.496;8.154;2023-04-06T14:02:05;13.90;76.10
26595;DHT22;14238;49.496;8.154;2023-04-06T14:04:32;13.70;74.90
26595;DHT22;14238;49.496;8.154;2023-04-06T14:06:58;13.80;75.60
26595;DHT22;14238;49.496;8.154;2023-04-06T14:09:24;14.00;75.20
26595;DHT22;14238;49.496;8.154;2023-04-06T14:11:50;14.00;73.30
26595;DHT22;14238;49.496;8.154;2023-04-06T14:14:16;14.00;70.70
26595;DHT22;14238;49.496;8.154;2023-04-06T14:16:42;13.90;72.70
26595;DHT22;14238;49.496;8.154;2023-04-06T14:19:12;13.80;75.20
26595;DHT22;14238;49.496;8.154;2023-04-06T14:21:41;14.00;75.40
26595;DHT22;14238;49.496;8.154;2023-04-06T14:24:08;13.80;72.60
26595;DHT22;14238;49.496;8.154;2023-04-06T14:26:35;13.60;70.90
26595;DHT22;14238;49.496;8.154;2023-04-06T14:29:01;13.40;69.40
26595;DHT22;14238;49.496;8.154;2023-04-06T14:31:28;13.40;70.80
26595;DHT22;14238;49.496;8.154;2023-04-06T14:33:53;13.20;73.00
26595;DHT22;14238;49.496;8.154;2023-04-06T14:36:19;13.30;69.80
26595;DHT22;14238;49.496;8.154;2023-04-06T14:38:44;13.20;71.90
26595;DHT22;14238;49.496;8.154;2023-04-06T14:41:16;12.90;73.20
26595;DHT22;14238;49.496;8.154;2023-04-06T14:43:42;12.80;74.80
26595;DHT22;14238;49.496;8.154;2023-04-06T14:46:08;12.80;73.50
26595;DHT22;14238;49.496;8.154;2023-04-06T14:48:34;12.50;75.20
26595;DHT22;14238;49.496;8.154;2023-04-06T14:51:00;12.40;77.40
26595;DHT22;14238;49.496;8.154;2023-04-06T14:53:26;12.40;78.20
26595;DHT22;14238;49.496;8.154;2023-04-06T14:55:52;12.50;81.30
26595;DHT22;14238;49.496;8.154;2023-04-06T14:58:18;12.60;77.40
26595;DHT22;14238;49.496;8.154;2023-04-06T15:00:44;12.40;78.90
26595;DHT22;14238;49.496;8.154;2023-04-06T15:03:10;12.40;80.70
26595;DHT22;14238;49.496;8.154;2023-04-06T15:05:35;12.50;79.60
26595;DHT22;14238;49.496;8.154;2023-04-06T15:08:01;12.40;80.80
26595;DHT22;14238;49.496;8.154;2023-04-06T15:10:27;12.30;81.00
26595;DHT22;14238;49.496;8.154;2023-04-06T15:12:52;12.20;80.60
26595;DHT22;14238;49.496;8.154;2023-04-06T15:15:19;12.30;81.30
26595;DHT22;14238;49.496;8.154;2023-04-06T15:17:44;12.20;81.40
26595;DHT22;14238;49.496;8.154;2023-04-06T15:20:10;12.20;81.00
26595;DHT22;14238;49.496;8.154;2023-04-06T15:22:36;12.00;82.00
26595;DHT22;14238;49.496;8.154;2023-04-06T15:25:08;11.90;83.30
26595;DHT22;14238;49.496;8.154;2023-04-06T15:27:33;11.80;85.00
26595;DHT22;14238;49.496;8.154;2023-04-06T15:29:59;11.70;85.80
26595;DHT22;14238;49.496;8.154;2023-04-06T15:32:24;11.70;85.20
26595;DHT22;14238;49.496;8.154;2023-04-06T15:34:50;11.70;87.10